sensor_id;sensor_type;location;lat;lon;timestamp;temperature;humidity
42097;DHT22;27754;45.414;11.084;2023-02-14T00:01:10;4.20;82.10
42097;DHT22;27754;45.414;11.084;2023-02-14T00:03:38;4.10;81.50
42097;DHT22;27754;45.414;11.084;2023-02-14T00:06:07;3.90;80.70
42097;DHT22;27754;45.414;11.084;2023-02-14T00:08:35;3.90;81.20
42097;DHT22;27754;45.414;11.084;2023-02-14T00:11:03;3.90;82.50
42097;DHT22;27754;45.414;11.084;2023-02-14T00:13:31;3.90;82.70
42097;DHT22;27754;45.414;11.084;2023-02-14T00:15:58;3.90;82.70
42097;DHT22;27754;45.414;11.084;2023-02-14T00:18:25;3.80;82.00
42097;DHT22;27754;45.414;11.084;2023-02-14T00:21:11;3.70;82.30
42097;DHT22;27754;45.414;11.084;2023-02-14T00:23:38;3.80;83.90
42097;DHT22;27754;45.414;11.084;2023-02-14T00:26:12;3.80;82.30
42097;DHT22;27754;45.414;11.084;2023-02-14T00:28:42;3.70;82.40
42097;DHT22;27754;45.414;11.084;2023-02-14T00:31:09;3.70;82.90
42097;DHT22;27754;45.414;11.084;2023-02-14T00:33:36;3.60;82.90
42097;DHT22;27754;45.414;11.084;2023-02-14T00:36:05;3.60;83.10
42097;DHT22;27754;45.414;11.084;2023-02-14T00:38:33;3.60;83.20
42097;DHT22;27754;45.414;11.084;2023-02-14T00:41:00;3.70;83.30
42097;DHT22;27754;45.414;11.084;2023-02-14T00:43:28;3.70;83.20
42097;DHT22;27754;45.414;11.084;2023-02-14T00:45:56;3.80;83.00
42097;DHT22;27754;45.414;11.084;2023-02-14T00:48:23;3.80;82.70
42097;DHT22;27754;45.414;11.084;2023-02-14T00:50:50;3.80;82.60
42097;DHT22;27754;45.414;11.084;2023-02-14T00:53:17;3.70;82.70
42097;DHT22;27754;45.414;11.084;2023-02-14T00:55:44;3.70;82.90
42097;DHT22;27754;45.414;11.084;2023-02-14T00:58:13;3.70;83.10
42097;DHT22;27754;45.414;11.084;2023-02-14T01:00:40;3.70;82.90
42097;DHT22;27754;45.414;11.084;2023-02-14T01:03:07;3.40;81.20
42097;DHT22;27754;45.414;11.084;2023-02-14T01:05:34;3.40;82.70
42097;DHT22;27754;45.414;11.084;2023-02-14T01:08:03;3.40;83.10
42097;DHT22;27754;45.414;11.084;2023-02-14T01:10:30;3.30;83.30
42097;DHT22;27754;45.414;11.084;2023-02-14T01:12:57;3.40;83.60
42097;DHT22;27754;45.414;11.084;2023-02-14T01:15:26;3.40;83.80
42097;DHT22;27754;45.414;11.084;2023-02-14T01:17:53;3.40;83.50
42097;DHT22;27754;45.414;11.084;2023-02-14T01:20:20;3.40;83.40
42097;DHT22;27754;45.414;11.084;2023-02-14T01:22:47;3.50;83.00
42097;DHT22;27754;45.414;11.084;2023-02-14T01:25:14;3.60;82.20
42097;DHT22;27754;45.414;11.084;2023-02-14T01:27:41;3.60;81.80
42097;DHT22;27754;45.414;11.084;2023-02-14T01:30:09;3.50;81.10
42097;DHT22;27754;45.414;11.084;2023-02-14T01:32:36;3.40;82.00
42097;DHT22;27754;45.414;11.084;2023-02-14T01:35:04;3.40;82.80
42097;DHT22;27754;45.414;11.084;2023-02-14T01:37:31;3.40;82.50
42097;DHT22;27754;45.414;11.084;2023-02-14T01:39:58;3.40;81.90
42097;DHT22;27754;45.414;11.084;2023-02-14T01:42:25;3.40;82.20
42097;DHT22;27754;45.414;11.084;2023-02-14T01:45:01;3.40;82.20
42097;DHT22;27754;45.414;11.084;2023-02-14T01:47:34;3.40;82.10
42097;DHT22;27754;45.414;11.084;2023-02-14T01:50:14;3.40;82.10
42097;DHT22;27754;45.414;11.084;2023-02-14T01:53:27;3.40;82.10
42097;DHT22;27754;45.414;11.084;2023-02-14T01:55:38;3.40;81.80
42097;DHT22;27754;45.414;11.084;2023-02-14T01:58:14;3.40;82.20
42097;DHT22;27754;45.414;11.084;2023-02-14T02:00:43;3.40;82.20
42097;DHT22;27754;45.414;11.084;2023-02-14T02:03:38;3.10;81.40
42097;DHT22;27754;45.414;11.084;2023-02-14T02:06:43;3.10;82.20
42097;DHT22;27754;45.414;11.084;2023-02-14T02:09:27;3.00;83.50
42097;DHT22;27754;45.414;11.084;2023-02-14T02:11:56;3.00;83.60
42097;DHT22;27754;45.414;11.084;2023-02-14T02:14:23;3.00;83.40
42097;DHT22;27754;45.414;11.084;2023-02-14T02:17:58;2.90;83.60
42097;DHT22;27754;45.414;11.084;2023-02-14T02:37:09;2.90;84.30
42097;DHT22;27754;45.414;11.084;2023-02-14T02:39:48;2.80;83.70
42097;DHT22;27754;45.414;11.084;2023-02-14T02:45:40;2.90;84.40
42097;DHT22;27754;45.414;11.084;2023-02-14T02:48:55;2.90;84.60
42097;DHT22;27754;45.414;11.084;2023-02-14T02:51:32;2.90;84.50
42097;DHT22;27754;45.414;11.084;2023-02-14T02:54:36;2.90;84.70
42097;DHT22;27754;45.414;11.084;2023-02-14T02:57:14;2.90;84.90
42097;DHT22;27754;45.414;11.084;2023-02-14T02:59:44;2.90;84.90
42097;DHT22;27754;45.414;11.084;2023-02-14T03:02:19;2.90;84.90
42097;DHT22;27754;45.414;11.084;2023-02-14T03:04:51;2.90;84.80
42097;DHT22;27754;45.414;11.084;2023-02-14T03:10:16;2.80;84.70
42097;DHT22;27754;45.414;11.084;2023-02-14T03:19:12;2.70;84.30
42097;DHT22;27754;45.414;11.084;2023-02-14T03:21:59;2.80;84.20
42097;DHT22;27754;45.414;11.084;2023-02-14T03:24:45;2.70;84.40
42097;DHT22;27754;45.414;11.084;2023-02-14T03:27:31;2.70;84.70
42097;DHT22;27754;45.414;11.084;2023-02-14T03:30:08;2.70;84.70
42097;DHT22;27754;45.414;11.084;2023-02-14T03:32:50;2.70;84.60
42097;DHT22;27754;45.414;11.084;2023-02-14T03:35:33;2.70;84.80
42097;DHT22;27754;45.414;11.084;2023-02-14T03:38:15;2.70;84.80
42097;DHT22;27754;45.414;11.084;2023-02-14T03:40:51;2.60;85.10
42097;DHT22;27754;45.414;11.084;2023-02-14T03:43:41;2.60;85.30
42097;DHT22;27754;45.414;11.084;2023-02-14T03:46:19;2.70;85.70
42097;DHT22;27754;45.414;11.084;2023-02-14T03:48:50;2.60;86.40
42097;DHT22;27754;45.414;11.084;2023-02-14T03:51:19;2.60;86.50
42097;DHT22;27754;45.414;11.084;2023-02-14T03:53:50;2.60;86.50
42097;DHT22;27754;45.414;11.084;2023-02-14T03:56:31;2.40;86.50
42097;DHT22;27754;45.414;11.084;2023-02-14T03:59:23;2.30;86.50
42097;DHT22;27754;45.414;11.084;2023-02-14T04:02:24;2.20;86.80
42097;DHT22;27754;45.414;11.084;2023-02-14T04:04:53;2.30;86.50
42097;DHT22;27754;45.414;11.084;2023-02-14T04:07:22;2.20;86.30
42097;DHT22;27754;45.414;11.084;2023-02-14T04:09:49;2.30;86.50
42097;DHT22;27754;45.414;11.084;2023-02-14T04:12:17;2.20;86.30
42097;DHT22;27754;45.414;11.084;2023-02-14T04:14:58;2.20;86.40
42097;DHT22;27754;45.414;11.084;2023-02-14T04:17:25;2.30;86.20
42097;DHT22;27754;45.414;11.084;2023-02-14T04:20:10;2.30;86.30
42097;DHT22;27754;45.414;11.084;2023-02-14T04:22:37;2.30;86.10
42097;DHT22;27754;45.414;11.084;2023-02-14T04:25:04;2.40;86.20
42097;DHT22;27754;45.414;11.084;2023-02-14T04:27:32;2.40;86.00
42097;DHT22;27754;45.414;11.084;2023-02-14T04:29:59;2.40;86.00
42097;DHT22;27754;45.414;11.084;2023-02-14T04:32:26;2.40;86.00
42097;DHT22;27754;45.414;11.084;2023-02-14T04:34:53;2.50;85.80
42097;DHT22;27754;45.414;11.084;2023-02-14T04:37:20;2.40;85.30
42097;DHT22;27754;45.414;11.084;2023-02-14T04:39:47;2.40;85.60
42097;DHT22;27754;45.414;11.084;2023-02-14T04:42:14;2.40;85.80
42097;DHT22;27754;45.414;11.084;2023-02-14T04:44:41;2.40;85.70
42097;DHT22;27754;45.414;11.084;2023-02-14T04:47:08;2.50;85.30
42097;DHT22;27754;45.414;11.084;2023-02-14T04:49:35;2.50;85.00
42097;DHT22;27754;45.414;11.084;2023-02-14T04:52:03;2.50;85.10
42097;DHT22;27754;45.414;11.084;2023-02-14T04:54:30;2.40;85.10
42097;DHT22;27754;45.414;11.084;2023-02-14T04:56:58;2.40;85.10
42097;DHT22;27754;45.414;11.084;2023-02-14T04:59:24;2.40;85.20
42097;DHT22;27754;45.414;11.084;2023-02-14T05:01:52;2.40;85.30
42097;DHT22;27754;45.414;11.084;2023-02-14T05:04:19;2.40;84.90
42097;DHT22;27754;45.414;11.084;2023-02-14T05:06:46;2.40;84.70
42097;DHT22;27754;45.414;11.084;2023-02-14T05:09:13;2.30;84.60
42097;DHT22;27754;45.414;11.084;2023-02-14T05:11:40;2.20;84.90
42097;DHT22;27754;45.414;11.084;2023-02-14T05:14:08;2.10;85.20
42097;DHT22;27754;45.414;11.084;2023-02-14T05:16:35;2.10;85.30
42097;DHT22;27754;45.414;11.084;2023-02-14T05:19:02;2.00;85.50
42097;DHT22;27754;45.414;11.084;2023-02-14T05:21:29;2.10;85.90
42097;DHT22;27754;45.414;11.084;2023-02-14T05:23:59;2.00;85.50
42097;DHT22;27754;45.414;11.084;2023-02-14T05:26:27;2.00;85.90
42097;DHT22;27754;45.414;11.084;2023-02-14T05:28:54;1.90;86.50
42097;DHT22;27754;45.414;11.084;2023-02-14T05:31:24;1.90;86.60
42097;DHT22;27754;45.414;11.084;2023-02-14T05:33:51;2.00;86.70
42097;DHT22;27754;45.414;11.084;2023-02-14T05:36:19;1.90;86.70
42097;DHT22;27754;45.414;11.084;2023-02-14T05:38:46;1.90;86.50
42097;DHT22;27754;45.414;11.084;2023-02-14T05:41:13;1.90;86.60
42097;DHT22;27754;45.414;11.084;2023-02-14T05:43:39;2.00;86.50
42097;DHT22;27754;45.414;11.084;2023-02-14T05:46:06;2.00;86.40
42097;DHT22;27754;45.414;11.084;2023-02-14T05:48:34;2.00;86.40
42097;DHT22;27754;45.414;11.084;2023-02-14T05:51:05;2.10;86.30
42097;DHT22;27754;45.414;11.084;2023-02-14T05:53:33;2.10;86.10
42097;DHT22;27754;45.414;11.084;2023-02-14T05:56:00;2.10;85.80
42097;DHT22;27754;45.414;11.084;2023-02-14T05:58:27;2.00;85.60
42097;DHT22;27754;45.414;11.084;2023-02-14T06:00:58;1.90;85.10
42097;DHT22;27754;45.414;11.084;2023-02-14T06:03:26;1.80;85.70
42097;DHT22;27754;45.414;11.084;2023-02-14T06:05:53;1.90;86.00
42097;DHT22;27754;45.414;11.084;2023-02-14T06:08:20;1.80;85.90
42097;DHT22;27754;45.414;11.084;2023-02-14T06:10:47;1.80;85.80
42097;DHT22;27754;45.414;11.084;2023-02-14T06:13:14;1.70;85.60
42097;DHT22;27754;45.414;11.084;2023-02-14T06:15:41;1.60;86.10
42097;DHT22;27754;45.414;11.084;2023-02-14T06:18:07;1.60;85.90
42097;DHT22;27754;45.414;11.084;2023-02-14T06:20:34;1.50;85.70
42097;DHT22;27754;45.414;11.084;2023-02-14T06:23:02;1.50;85.70
42097;DHT22;27754;45.414;11.084;2023-02-14T06:25:29;1.50;86.00
42097;DHT22;27754;45.414;11.084;2023-02-14T06:27:57;1.60;86.50
42097;DHT22;27754;45.414;11.084;2023-02-14T06:30:25;1.50;86.70
42097;DHT22;27754;45.414;11.084;2023-02-14T06:32:52;1.60;86.60
42097;DHT22;27754;45.414;11.084;2023-02-14T06:35:19;1.40;85.90
42097;DHT22;27754;45.414;11.084;2023-02-14T06:37:46;1.40;85.80
42097;DHT22;27754;45.414;11.084;2023-02-14T06:40:13;1.50;86.10
42097;DHT22;27754;45.414;11.084;2023-02-14T06:42:40;1.40;85.90
42097;DHT22;27754;45.414;11.084;2023-02-14T06:45:08;1.50;85.80
42097;DHT22;27754;45.414;11.084;2023-02-14T06:47:35;1.50;85.60
42097;DHT22;27754;45.414;11.084;2023-02-14T06:50:03;1.50;85.70
42097;DHT22;27754;45.414;11.084;2023-02-14T06:52:32;1.50;85.70
42097;DHT22;27754;45.414;11.084;2023-02-14T06:54:59;1.50;85.70
42097;DHT22;27754;45.414;11.084;2023-02-14T06:57:26;1.60;85.70
42097;DHT22;27754;45.414;11.084;2023-02-14T06:59:53;1.70;85.50
42097;DHT22;27754;45.414;11.084;2023-02-14T07:02:20;1.90;85.50
42097;DHT22;27754;45.414;11.084;2023-02-14T07:04:50;1.90;85.30
42097;DHT22;27754;45.414;11.084;2023-02-14T07:07:18;2.00;85.30
42097;DHT22;27754;45.414;11.084;2023-02-14T07:09:45;2.10;84.80
42097;DHT22;27754;45.414;11.084;2023-02-14T07:12:12;2.10;84.80
42097;DHT22;27754;45.414;11.084;2023-02-14T07:14:38;2.20;84.80
42097;DHT22;27754;45.414;11.084;2023-02-14T07:17:06;2.40;85.00
42097;DHT22;27754;45.414;11.084;2023-02-14T07:19:33;2.40;85.00
42097;DHT22;27754;45.414;11.084;2023-02-14T07:22:00;2.40;84.70
42097;DHT22;27754;45.414;11.084;2023-02-14T07:24:26;2.30;84.70
42097;DHT22;27754;45.414;11.084;2023-02-14T07:26:54;2.30;85.40
42097;DHT22;27754;45.414;11.084;2023-02-14T07:29:21;2.40;85.60
42097;DHT22;27754;45.414;11.084;2023-02-14T07:31:47;2.40;85.90
42097;DHT22;27754;45.414;11.084;2023-02-14T07:34:14;2.60;86.10
42097;DHT22;27754;45.414;11.084;2023-02-14T07:36:41;2.80;85.90
42097;DHT22;27754;45.414;11.084;2023-02-14T07:39:09;2.90;85.70
42097;DHT22;27754;45.414;11.084;2023-02-14T07:41:37;3.10;85.00
42097;DHT22;27754;45.414;11.084;2023-02-14T07:44:11;3.20;84.50
42097;DHT22;27754;45.414;11.084;2023-02-14T07:46:38;3.30;84.10
42097;DHT22;27754;45.414;11.084;2023-02-14T07:49:05;3.40;83.70
42097;DHT22;27754;45.414;11.084;2023-02-14T07:51:32;3.50;83.50
42097;DHT22;27754;45.414;11.084;2023-02-14T07:53:59;3.70;82.20
42097;DHT22;27754;45.414;11.084;2023-02-14T07:56:28;3.80;82.30
42097;DHT22;27754;45.414;11.084;2023-02-14T07:58:55;3.90;81.90
42097;DHT22;27754;45.414;11.084;2023-02-14T08:01:22;4.10;81.70
42097;DHT22;27754;45.414;11.084;2023-02-14T08:03:49;4.20;81.40
42097;DHT22;27754;45.414;11.084;2023-02-14T08:06:18;4.30;81.10
42097;DHT22;27754;45.414;11.084;2023-02-14T08:08:45;4.40;81.40
42097;DHT22;27754;45.414;11.084;2023-02-14T08:11:13;4.60;81.40
42097;DHT22;27754;45.414;11.084;2023-02-14T08:14:04;4.60;81.00
42097;DHT22;27754;45.414;11.084;2023-02-14T08:16:31;4.80;81.10
42097;DHT22;27754;45.414;11.084;2023-02-14T08:19:00;4.90;80.90
42097;DHT22;27754;45.414;11.084;2023-02-14T08:21:27;5.00;80.30
42097;DHT22;27754;45.414;11.084;2023-02-14T08:23:55;5.20;80.30
42097;DHT22;27754;45.414;11.084;2023-02-14T08:26:22;5.40;79.80
42097;DHT22;27754;45.414;11.084;2023-02-14T08:28:49;5.40;79.50
42097;DHT22;27754;45.414;11.084;2023-02-14T08:31:25;5.50;79.50
42097;DHT22;27754;45.414;11.084;2023-02-14T08:34:05;5.70;79.60
42097;DHT22;27754;45.414;11.084;2023-02-14T08:36:32;5.90;79.00
42097;DHT22;27754;45.414;11.084;2023-02-14T08:39:01;6.00;78.70
42097;DHT22;27754;45.414;11.084;2023-02-14T08:41:28;6.20;78.40
42097;DHT22;27754;45.414;11.084;2023-02-14T08:43:55;6.30;77.70
42097;DHT22;27754;45.414;11.084;2023-02-14T08:46:23;6.40;77.30
42097;DHT22;27754;45.414;11.084;2023-02-14T08:48:50;6.40;77.10
42097;DHT22;27754;45.414;11.084;2023-02-14T08:51:19;6.50;77.00
42097;DHT22;27754;45.414;11.084;2023-02-14T08:53:51;6.40;76.20
42097;DHT22;27754;45.414;11.084;2023-02-14T08:56:19;6.60;76.90
42097;DHT22;27754;45.414;11.084;2023-02-14T08:58:51;6.70;77.20
42097;DHT22;27754;45.414;11.084;2023-02-14T09:01:19;6.80;76.90
42097;DHT22;27754;45.414;11.084;2023-02-14T09:03:46;6.90;77.10
42097;DHT22;27754;45.414;11.084;2023-02-14T09:06:14;6.90;77.50
42097;DHT22;27754;45.414;11.084;2023-02-14T09:08:43;6.90;77.00
42097;DHT22;27754;45.414;11.084;2023-02-14T09:11:17;7.00;77.40
42097;DHT22;27754;45.414;11.084;2023-02-14T09:13:45;7.10;77.30
42097;DHT22;27754;45.414;11.084;2023-02-14T09:16:14;7.10;77.60
42097;DHT22;27754;45.414;11.084;2023-02-14T09:18:44;7.20;78.00
42097;DHT22;27754;45.414;11.084;2023-02-14T09:21:17;7.30;77.90
42097;DHT22;27754;45.414;11.084;2023-02-14T09:23:44;7.40;78.00
42097;DHT22;27754;45.414;11.084;2023-02-14T09:26:13;7.40;77.80
42097;DHT22;27754;45.414;11.084;2023-02-14T09:28:41;7.40;78.00
42097;DHT22;27754;45.414;11.084;2023-02-14T09:31:19;7.50;78.30
42097;DHT22;27754;45.414;11.084;2023-02-14T09:33:47;7.50;78.40
42097;DHT22;27754;45.414;11.084;2023-02-14T09:36:15;7.60;78.50
42097;DHT22;27754;45.414;11.084;2023-02-14T09:39:01;7.60;78.80
42097;DHT22;27754;45.414;11.084;2023-02-14T09:44:00;7.90;78.50
42097;DHT22;27754;45.414;11.084;2023-02-14T09:46:29;7.90;78.30
42097;DHT22;27754;45.414;11.084;2023-02-14T09:48:58;8.00;78.10
42097;DHT22;27754;45.414;11.084;2023-02-14T09:51:28;8.00;77.70
42097;DHT22;27754;45.414;11.084;2023-02-14T10:04:53;8.40;76.20
42097;DHT22;27754;45.414;11.084;2023-02-14T10:07:59;8.60;75.30
42097;DHT22;27754;45.414;11.084;2023-02-14T10:10:40;8.70;75.40
42097;DHT22;27754;45.414;11.084;2023-02-14T10:16:03;8.90;75.10
42097;DHT22;27754;45.414;11.084;2023-02-14T10:18:44;8.90;74.60
42097;DHT22;27754;45.414;11.084;2023-02-14T10:21:23;9.00;74.30
42097;DHT22;27754;45.414;11.084;2023-02-14T10:24:22;9.10;74.10
42097;DHT22;27754;45.414;11.084;2023-02-14T10:26:56;9.10;73.70
42097;DHT22;27754;45.414;11.084;2023-02-14T10:29:27;9.20;73.20
42097;DHT22;27754;45.414;11.084;2023-02-14T10:31:59;9.30;73.20
42097;DHT22;27754;45.414;11.084;2023-02-14T10:34:47;9.40;72.20
42097;DHT22;27754;45.414;11.084;2023-02-14T10:37:30;9.50;71.70
42097;DHT22;27754;45.414;11.084;2023-02-14T10:43:04;9.80;70.30
42097;DHT22;27754;45.414;11.084;2023-02-14T10:50:51;10.00;67.90
42097;DHT22;27754;45.414;11.084;2023-02-14T10:56:25;10.20;68.10
42097;DHT22;27754;45.414;11.084;2023-02-14T10:58:55;10.30;68.10
42097;DHT22;27754;45.414;11.084;2023-02-14T11:01:23;10.30;68.00
42097;DHT22;27754;45.414;11.084;2023-02-14T11:03:57;10.40;67.50
42097;DHT22;27754;45.414;11.084;2023-02-14T11:06:29;10.40;67.60
42097;DHT22;27754;45.414;11.084;2023-02-14T11:08:57;10.40;67.70
42097;DHT22;27754;45.414;11.084;2023-02-14T11:11:27;10.50;67.90
42097;DHT22;27754;45.414;11.084;2023-02-14T11:13:56;10.60;67.80
42097;DHT22;27754;45.414;11.084;2023-02-14T11:16:32;10.70;67.90
42097;DHT22;27754;45.414;11.084;2023-02-14T11:21:44;10.90;67.60
42097;DHT22;27754;45.414;11.084;2023-02-14T11:26:47;10.90;67.50
42097;DHT22;27754;45.414;11.084;2023-02-14T11:30:01;11.10;66.90
42097;DHT22;27754;45.414;11.084;2023-02-14T11:32:21;11.20;66.80
42097;DHT22;27754;45.414;11.084;2023-02-14T11:35:02;11.30;66.80
42097;DHT22;27754;45.414;11.084;2023-02-14T11:37:43;11.40;65.80
42097;DHT22;27754;45.414;11.084;2023-02-14T11:40:31;11.50;65.70
42097;DHT22;27754;45.414;11.084;2023-02-14T11:43:16;11.60;65.10
42097;DHT22;27754;45.414;11.084;2023-02-14T11:45:48;11.90;64.30
42097;DHT22;27754;45.414;11.084;2023-02-14T11:48:18;12.10;63.80
42097;DHT22;27754;45.414;11.084;2023-02-14T11:51:10;12.20;62.90
42097;DHT22;27754;45.414;11.084;2023-02-14T11:53:51;12.40;62.30
42097;DHT22;27754;45.414;11.084;2023-02-14T11:56:20;12.50;62.20
42097;DHT22;27754;45.414;11.084;2023-02-14T12:03:57;12.70;60.40
42097;DHT22;27754;45.414;11.084;2023-02-14T12:06:31;12.80;60.00
42097;DHT22;27754;45.414;11.084;2023-02-14T12:12:05;12.70;57.90
42097;DHT22;27754;45.414;11.084;2023-02-14T12:14:40;12.70;56.80
42097;DHT22;27754;45.414;11.084;2023-02-14T12:23:04;12.70;56.90
42097;DHT22;27754;45.414;11.084;2023-02-14T12:25:42;12.80;55.80
42097;DHT22;27754;45.414;11.084;2023-02-14T12:28:13;12.90;56.10
42097;DHT22;27754;45.414;11.084;2023-02-14T12:30:42;12.90;55.40
42097;DHT22;27754;45.414;11.084;2023-02-14T12:33:18;13.00;56.50
42097;DHT22;27754;45.414;11.084;2023-02-14T12:41:37;13.20;55.80
42097;DHT22;27754;45.414;11.084;2023-02-14T12:57:39;13.70;52.40
42097;DHT22;27754;45.414;11.084;2023-02-14T13:00:46;13.80;52.20
42097;DHT22;27754;45.414;11.084;2023-02-14T13:06:21;14.00;50.80
42097;DHT22;27754;45.414;11.084;2023-02-14T13:09:20;14.20;50.60
42097;DHT22;27754;45.414;11.084;2023-02-14T13:17:17;14.20;50.00
42097;DHT22;27754;45.414;11.084;2023-02-14T13:22:51;14.50;49.50
42097;DHT22;27754;45.414;11.084;2023-02-14T13:25:28;14.60;49.00
42097;DHT22;27754;45.414;11.084;2023-02-14T13:28:06;14.70;48.90
42097;DHT22;27754;45.414;11.084;2023-02-14T13:30:36;14.60;48.90
42097;DHT22;27754;45.414;11.084;2023-02-14T13:33:33;14.80;49.00
42097;DHT22;27754;45.414;11.084;2023-02-14T13:36:07;14.90;49.20
42097;DHT22;27754;45.414;11.084;2023-02-14T13:38:48;14.90;50.40
42097;DHT22;27754;45.414;11.084;2023-02-14T13:41:17;14.80;50.50
42097;DHT22;27754;45.414;11.084;2023-02-14T13:43:51;14.90;49.50
42097;DHT22;27754;45.414;11.084;2023-02-14T13:47:05;15.00;49.00
42097;DHT22;27754;45.414;11.084;2023-02-14T13:49:29;14.90;50.00
42097;DHT22;27754;45.414;11.084;2023-02-14T13:52:00;14.90;50.10
42097;DHT22;27754;45.414;11.084;2023-02-14T13:54:45;14.90;50.40
42097;DHT22;27754;45.414;11.084;2023-02-14T14:02:47;14.90;50.70
42097;DHT22;27754;45.414;11.084;2023-02-14T14:08:41;14.80;51.60
42097;DHT22;27754;45.414;11.084;2023-02-14T14:14:00;14.90;52.00
42097;DHT22;27754;45.414;11.084;2023-02-14T14:16:31;15.00;51.60
42097;DHT22;27754;45.414;11.084;2023-02-14T14:21:39;15.00;51.60
42097;DHT22;27754;45.414;11.084;2023-02-14T14:29:33;14.90;52.40
42097;DHT22;27754;45.414;11.084;2023-02-14T14:32:36;14.90;54.00
42097;DHT22;27754;45.414;11.084;2023-02-14T14:35:21;14.80;54.20
42097;DHT22;27754;45.414;11.084;2023-02-14T14:37:54;14.70;54.30
42097;DHT22;27754;45.414;11.084;2023-02-14T14:40:26;14.60;54.80
42097;DHT22;27754;45.414;11.084;2023-02-14T14:42:58;14.60;54.90
42097;DHT22;27754;45.414;11.084;2023-02-14T14:45:28;14.60;55.30
42097;DHT22;27754;45.414;11.084;2023-02-14T14:47:58;14.50;55.20
42097;DHT22;27754;45.414;11.084;2023-02-14T14:50:28;14.50;55.10
42097;DHT22;27754;45.414;11.084;2023-02-14T14:53:06;14.40;54.60
42097;DHT22;27754;45.414;11.084;2023-02-14T14:55:38;14.40;54.40
42097;DHT22;27754;45.414;11.084;2023-02-14T14:58:37;14.40;54.70
42097;DHT22;27754;45.414;11.084;2023-02-14T15:01:08;14.40;55.30
42097;DHT22;27754;45.414;11.084;2023-02-14T15:03:36;14.30;55.70
42097;DHT22;27754;45.414;11.084;2023-02-14T15:06:13;14.30;55.90
42097;DHT22;27754;45.414;11.084;2023-02-14T15:08:43;14.30;56.00
42097;DHT22;27754;45.414;11.084;2023-02-14T15:11:15;14.20;55.90
42097;DHT22;27754;45.414;11.084;2023-02-14T15:14:05;14.20;55.60
42097;DHT22;27754;45.414;11.084;2023-02-14T15:16:49;14.20;55.90
42097;DHT22;27754;45.414;11.084;2023-02-14T15:19:39;14.10;55.90
42097;DHT22;27754;45.414;11.084;2023-02-14T15:22:21;14.00;56.20
42097;DHT22;27754;45.414;11.084;2023-02-14T15:24:50;14.00;56.30
42097;DHT22;27754;45.414;11.084;2023-02-14T15:27:20;13.90;56.60
42097;DHT22;27754;45.414;11.084;2023-02-14T15:30:16;13.90;56.80
42097;DHT22;27754;45.414;11.084;2023-02-14T15:32:49;13.90;57.30
42097;DHT22;27754;45.414;11.084;2023-02-14T15:35:21;13.80;57.10
42097;DHT22;27754;45.414;11.084;2023-02-14T15:37:49;13.80;57.40
42097;DHT22;27754;45.414;11.084;2023-02-14T15:42:44;13.60;58.00
42097;DHT22;27754;45.414;11.084;2023-02-14T15:45:16;13.60;58.40
42097;DHT22;27754;45.414;11.084;2023-02-14T15:47:45;13.50;58.40
42097;DHT22;27754;45.414;11.084;2023-02-14T15:50:19;13.40;58.90
42097;DHT22;27754;45.414;11.084;2023-02-14T15:52:47;13.30;59.10
42097;DHT22;27754;45.414;11.084;2023-02-14T15:55:17;13.30;59.50
42097;DHT22;27754;45.414;11.084;2023-02-14T15:58:33;13.20;59.80
42097;DHT22;27754;45.414;11.084;2023-02-14T16:00:42;13.10;60.20
42097;DHT22;27754;45.414;11.084;2023-02-14T16:03:18;13.10;60.40
42097;DHT22;27754;45.414;11.084;2023-02-14T16:05:47;12.90;60.50
42097;DHT22;27754;45.414;11.084;2023-02-14T16:08:36;12.80;60.70
42097;DHT22;27754;45.414;11.084;2023-02-14T16:11:46;12.70;61.00
42097;DHT22;27754;45.414;11.084;2023-02-14T16:13:53;12.60;61.30
42097;DHT22;27754;45.414;11.084;2023-02-14T16:16:20;12.50;61.90
42097;DHT22;27754;45.414;11.084;2023-02-14T16:18:52;12.40;62.20
42097;DHT22;27754;45.414;11.084;2023-02-14T16:21:29;12.30;62.80
42097;DHT22;27754;45.414;11.084;2023-02-14T16:26:34;12.00;63.60
42097;DHT22;27754;45.414;11.084;2023-02-14T16:29:03;11.90;64.00
42097;DHT22;27754;45.414;11.084;2023-02-14T16:31:31;11.80;64.40
42097;DHT22;27754;45.414;11.084;2023-02-14T16:33:59;11.70;64.70
42097;DHT22;27754;45.414;11.084;2023-02-14T16:36:30;11.60;64.90
42097;DHT22;27754;45.414;11.084;2023-02-14T16:39:00;11.40;65.10
42097;DHT22;27754;45.414;11.084;2023-02-14T16:41:28;11.40;65.30
42097;DHT22;27754;45.414;11.084;2023-02-14T16:43:56;11.20;65.70
42097;DHT22;27754;45.414;11.084;2023-02-14T16:46:30;11.10;66.00
42097;DHT22;27754;45.414;11.084;2023-02-14T16:48:58;11.00;66.40
42097;DHT22;27754;45.414;11.084;2023-02-14T16:51:28;10.90;66.60
42097;DHT22;27754;45.414;11.084;2023-02-14T16:54:01;10.80;66.80
42097;DHT22;27754;45.414;11.084;2023-02-14T16:56:43;10.70;67.20
42097;DHT22;27754;45.414;11.084;2023-02-14T16:59:11;10.60;67.40
42097;DHT22;27754;45.414;11.084;2023-02-14T17:01:38;10.50;67.90
42097;DHT22;27754;45.414;11.084;2023-02-14T17:04:05;10.40;68.10
42097;DHT22;27754;45.414;11.084;2023-02-14T17:06:33;10.40;68.40
42097;DHT22;27754;45.414;11.084;2023-02-14T17:09:04;10.30;68.70
42097;DHT22;27754;45.414;11.084;2023-02-14T17:11:35;10.20;68.90
42097;DHT22;27754;45.414;11.084;2023-02-14T17:14:03;10.20;69.00
42097;DHT22;27754;45.414;11.084;2023-02-14T17:16:30;10.10;69.20
42097;DHT22;27754;45.414;11.084;2023-02-14T17:18:58;9.90;69.40
42097;DHT22;27754;45.414;11.084;2023-02-14T17:21:27;9.90;69.80
42097;DHT22;27754;45.414;11.084;2023-02-14T17:23:54;9.80;70.00
42097;DHT22;27754;45.414;11.084;2023-02-14T17:26:22;9.70;70.60
42097;DHT22;27754;45.414;11.084;2023-02-14T17:28:50;9.70;70.70
42097;DHT22;27754;45.414;11.084;2023-02-14T17:31:17;9.70;70.90
42097;DHT22;27754;45.414;11.084;2023-02-14T17:33:44;9.60;71.10
42097;DHT22;27754;45.414;11.084;2023-02-14T17:36:12;9.60;71.30
42097;DHT22;27754;45.414;11.084;2023-02-14T17:38:40;9.50;71.50
42097;DHT22;27754;45.414;11.084;2023-02-14T17:41:17;9.50;71.60
42097;DHT22;27754;45.414;11.084;2023-02-14T17:43:45;9.40;71.80
42097;DHT22;27754;45.414;11.084;2023-02-14T17:46:12;9.50;71.80
42097;DHT22;27754;45.414;11.084;2023-02-14T17:48:41;9.40;71.80
42097;DHT22;27754;45.414;11.084;2023-02-14T17:51:12;9.40;71.90
42097;DHT22;27754;45.414;11.084;2023-02-14T17:53:40;9.40;72.50
42097;DHT22;27754;45.414;11.084;2023-02-14T17:56:09;9.40;72.10
42097;DHT22;27754;45.414;11.084;2023-02-14T17:58:37;9.30;72.20
42097;DHT22;27754;45.414;11.084;2023-02-14T18:01:09;9.30;72.40
42097;DHT22;27754;45.414;11.084;2023-02-14T18:03:37;9.30;72.60
42097;DHT22;27754;45.414;11.084;2023-02-14T18:06:05;9.20;73.00
42097;DHT22;27754;45.414;11.084;2023-02-14T18:08:38;9.20;73.20